Time;durP1;ratioP1;P1;durP2;ratioP2;P2;SDS_P1;SDS_P2;PMS_P1;PMS_P2;Temp;Humidity;BMP_temperature;BMP_pressure;BME280_temperature;BME280_humidity;BME280_pressure;Samples;Min_cycle;Max_cycle;Signal;HPM_P1;HPM_P2
2022/11/21 00:00:25;;;;;;;20.02;12.95;;;2.30;98.10;;;;;;5002611;28;20509;-68
2022/11/21 00:02:50;;;;;;;20.90;12.95;;;2.30;98.00;;;;;;5001306;28;20551;-66
2022/11/21 00:05:16;;;;;;;19.05;12.95;;;2.40;98.10;;;;;;5002142;28;20049;-66
2022/11/21 00:07:42;;;;;;;22.88;14.30;;;2.40;98.10;;;;;;5000789;28;20042;-66
2022/11/21 00:10:08;;;;;;;23.02;14.27;;;2.40;98.10;;;;;;5000643;28;20030;-66
2022/11/21 00:12:34;;;;;;;23.75;13.63;;;2.40;98.10;;;;;;5003890;28;20026;-67
2022/11/21 00:15:00;;;;;;;23.65;14.82;;;2.40;98.00;;;;;;5004612;28;20511;-67
2022/11/21 00:17:25;;;;;;;22.83;14.45;;;2.40;98.10;;;;;;5001465;28;20026;-66
2022/11/21 00:19:51;;;;;;;24.45;15.98;;;2.50;98.10;;;;;;5011717;28;20069;-67
2022/11/21 00:22:18;;;;;;;27.58;15.57;;;2.50;98.00;;;;;;5013415;28;20496;-67
2022/11/21 00:24:43;;;;;;;26.40;14.70;;;2.50;98.00;;;;;;5012538;28;20389;-67
2022/11/21 00:27:09;;;;;;;24.27;14.70;;;2.50;98.00;;;;;;5013732;28;20030;-67
2022/11/21 00:29:35;;;;;;;22.85;13.45;;;2.50;98.00;;;;;;5007876;28;22209;-67
2022/11/21 00:32:00;;;;;;;25.05;14.80;;;2.60;98.00;;;;;;5001732;28;20053;-67
2022/11/21 00:34:26;;;;;;;24.38;13.55;;;2.60;98.00;;;;;;4999502;28;20037;-67
2022/11/21 00:36:51;;;;;;;25.55;14.95;;;2.60;98.00;;;;;;5016751;28;20076;-67
2022/11/21 00:39:17;;;;;;;21.73;14.50;;;2.60;98.00;;;;;;5002969;28;20508;-67
2022/11/21 00:41:44;;;;;;;23.30;14.48;;;2.60;98.00;;;;;;5002439;28;20096;-66
2022/11/21 00:44:09;;;;;;;27.40;14.80;;;2.60;98.00;;;;;;5001361;28;20454;-66
2022/11/21 00:46:35;;;;;;;23.75;13.23;;;2.60;97.90;;;;;;5000282;28;20623;-65
2022/11/21 00:49:01;;;;;;;21.90;13.30;;;2.60;97.90;;;;;;5000081;28;20042;-66
2022/11/21 00:51:26;;;;;;;22.63;13.43;;;2.60;98.00;;;;;;5000529;28;20091;-66
2022/11/21 00:53:52;;;;;;;23.20;13.30;;;2.60;98.00;;;;;;5001640;28;20034;-66
2022/11/21 00:56:18;;;;;;;22.42;14.00;;;2.70;98.00;;;;;;5003339;28;20087;-67
2022/11/21 00:58:43;;;;;;;27.10;15.60;;;2.70;98.00;;;;;;5002827;28;20112;-67
2022/11/21 01:01:13;;;;;;;28.77;15.73;;;2.70;97.90;;;;;;5003301;28;20528;-67
2022/11/21 01:03:40;;;;;;;22.92;13.13;;;2.70;97.90;;;;;;4999803;28;20041;-67
2022/11/21 01:06:11;;;;;;;22.35;14.05;;;2.70;98.00;;;;;;5002718;28;20382;-66
2022/11/21 01:08:40;;;;;;;21.88;14.07;;;2.70;98.00;;;;;;4998714;28;20720;-67
2022/11/21 01:11:13;;;;;;;23.02;14.25;;;2.70;97.90;;;;;;5003468;28;20360;-66
2022/11/21 01:13:39;;;;;;;19.88;12.65;;;2.60;97.90;;;;;;5001472;28;20069;-65
2022/11/21 01:16:13;;;;;;;21.98;13.50;;;2.60;98.00;;;;;;4998852;28;20026;-66
2022/11/21 01:18:39;;;;;;;19.85;12.43;;;2.60;97.90;;;;;;5007814;28;20026;-66
2022/11/21 01:21:12;;;;;;;21.02;13.00;;;2.60;97.90;;;;;;4999369;28;20033;-66
2022/11/21 01:23:40;;;;;;;20.05;12.82;;;2.60;97.90;;;;;;4998770;28;20088;-66
2022/11/21 01:26:08;;;;;;;19.15;12.50;;;2.60;97.90;;;;;;5002311;28;20034;-66
2022/11/21 01:28:34;;;;;;;22.92;13.15;;;2.60;98.00;;;;;;4999316;28;20037;-67
2022/11/21 01:31:11;;;;;;;20.50;13.43;;;2.60;98.20;;;;;;5000117;28;20661;-66
2022/11/21 01:33:38;;;;;;;20.98;12.07;;;2.60;98.00;;;;;;4999243;28;20046;-66
2022/11/21 01:36:28;;;;;;;20.35;12.73;;;2.70;98.00;;;;;;5000844;28;20029;-66
2022/11/21 01:38:56;;;;;;;20.92;12.98;;;2.60;98.00;;;;;;5001488;28;20042;-66
2022/11/21 01:41:32;;;;;;;20.83;13.65;;;2.60;98.00;;;;;;5000047;28;20034;-66
2022/11/21 01:43:59;;;;;;;22.15;13.50;;;2.60;97.90;;;;;;5000851;28;20045;-66
2022/11/21 01:46:25;;;;;;;21.98;13.48;;;2.60;98.00;;;;;;5002711;28;20132;-66
2022/11/21 01:49:00;;;;;;;23.33;13.73;;;2.60;98.00;;;;;;5001622;28;20096;-66
2022/11/21 01:51:35;;;;;;;19.95;13.25;;;2.50;98.00;;;;;;4997649;28;20022;-66
2022/11/21 01:54:09;;;;;;;22.00;13.65;;;2.50;98.00;;;;;;4997650;28;20042;-67
2022/11/21 01:56:45;;;;;;;22.13;14.32;;;2.40;98.00;;;;;;5002403;28;20042;-67
2022/11/21 01:59:18;;;;;;;19.33;13.35;;;2.40;98.00;;;;;;4999252;28;20084;-66
2022/11/21 02:01:46;;;;;;;20.38;13.05;;;2.50;98.10;;;;;;4999132;28;20022;-67
2022/11/21 02:04:12;;;;;;;19.02;12.57;;;2.40;98.00;;;;;;5001892;28;20125;-67
2022/11/21 02:06:38;;;;;;;21.42;13.38;;;2.40;98.00;;;;;;5000873;28;20108;-67
2022/11/21 02:09:04;;;;;;;20.23;12.60;;;2.40;98.00;;;;;;4991278;28;20046;-67
2022/11/21 02:11:42;;;;;;;20.95;13.45;;;2.40;98.00;;;;;;5000739;28;20030;-67
2022/11/21 02:14:10;;;;;;;21.38;13.70;;;2.40;98.00;;;;;;5001001;28;20045;-67
2022/11/21 02:16:35;;;;;;;19.85;12.23;;;2.30;98.00;;;;;;4999268;28;20034;-67
2022/11/21 02:19:02;;;;;;;20.35;12.73;;;2.40;98.10;;;;;;4997771;28;20437;-67
2022/11/21 02:22:06;;;;;;;23.15;13.05;;;2.40;98.10;;;;;;4997940;28;20540;-67
2022/11/21 02:24:55;;;;;;;20.58;11.77;;;2.30;98.10;;;;;;5000534;28;20038;-67
2022/11/21 02:27:40;;;;;;;20.48;12.93;;;2.40;98.10;;;;;;5001089;28;20084;-67
2022/11/21 02:30:07;;;;;;;21.42;12.73;;;2.40;98.10;;;;;;4999123;28;20050;-67
2022/11/21 02:32:39;;;;;;;20.88;12.43;;;2.40;98.20;;;;;;5002921;28;20113;-67
2022/11/21 02:35:07;;;;;;;20.60;12.35;;;2.40;98.10;;;;;;5005274;28;20029;-67
2022/11/21 02:37:35;;;;;;;19.25;12.40;;;2.40;98.10;;;;;;5005701;28;20048;-67
2022/11/21 02:40:11;;;;;;;21.40;14.02;;;2.40;98.10;;;;;;5005061;28;20030;-67
2022/11/21 02:42:50;;;;;;;22.20;12.82;;;2.30;98.00;;;;;;5004981;28;20031;-67
2022/11/21 02:45:27;;;;;;;21.27;13.20;;;2.30;98.10;;;;;;5004046;28;20046;-66
2022/11/21 02:47:54;;;;;;;19.65;12.90;;;2.30;98.10;;;;;;5002805;28;20046;-67
2022/11/21 02:50:47;;;;;;;19.63;12.23;;;2.20;98.10;;;;;;5004436;28;20025;-66
2022/11/21 02:53:16;;;;;;;19.58;11.68;;;2.20;98.10;;;;;;5004638;28;20034;-67
2022/11/21 02:55:45;;;;;;;20.85;12.88;;;2.20;98.10;;;;;;5002653;28;20022;-67
2022/11/21 02:58:11;;;;;;;20.98;12.07;;;2.20;98.20;;;;;;5002902;28;20026;-67
2022/11/21 03:00:39;;;;;;;24.23;13.90;;;2.20;98.20;;;;;;5001344;28;20031;-67
2022/11/21 03:03:05;;;;;;;19.88;11.88;;;2.30;98.20;;;;;;5003156;28;20496;-69
2022/11/21 03:05:31;;;;;;;22.67;13.10;;;2.30;98.40;;;;;;5003112;28;20113;-67
2022/11/21 03:07:57;;;;;;;21.52;13.23;;;2.30;98.20;;;;;;5003426;28;20901;-67
2022/11/21 03:10:23;;;;;;;22.95;12.90;;;2.30;98.20;;;;;;5006494;28;20033;-67
2022/11/21 03:12:48;;;;;;;21.77;13.02;;;2.30;98.20;;;;;;5002617;28;20726;-67
2022/11/21 03:15:15;;;;;;;24.05;12.10;;;2.30;98.20;;;;;;5002168;28;20116;-68
2022/11/21 03:17:41;;;;;;;22.38;13.45;;;2.30;98.20;;;;;;5003610;28;20022;-67
2022/11/21 03:20:07;;;;;;;21.08;13.13;;;2.40;98.20;;;;;;5001276;28;20136;-67
2022/11/21 03:22:33;;;;;;;22.92;12.50;;;2.40;98.20;;;;;;4999989;28;20033;-66
2022/11/21 03:24:59;;;;;;;23.77;13.68;;;2.40;98.20;;;;;;5002505;28;20527;-67
2022/11/21 03:27:25;;;;;;;25.13;13.75;;;2.40;98.20;;;;;;5002415;28;20077;-67
2022/11/21 03:29:50;;;;;;;20.05;13.73;;;2.40;98.20;;;;;;5004048;28;20036;-66
2022/11/21 03:32:16;;;;;;;22.25;13.98;;;2.40;98.30;;;;;;5005385;28;20091;-67
2022/11/21 03:34:42;;;;;;;20.40;13.50;;;2.40;98.30;;;;;;5006031;28;20037;-68
2022/11/21 03:37:07;;;;;;;19.85;12.60;;;2.40;98.30;;;;;;5001355;28;20475;-66
2022/11/21 03:39:33;;;;;;;26.02;14.15;;;2.40;98.30;;;;;;5001875;28;20041;-67
2022/11/21 03:41:59;;;;;;;23.10;13.80;;;2.40;98.30;;;;;;5001475;28;20068;-67
2022/11/21 03:44:25;;;;;;;20.55;13.10;;;2.40;98.40;;;;;;5000891;28;20144;-67
2022/11/21 03:46:51;;;;;;;22.23;14.30;;;2.40;98.40;;;;;;5005140;28;20068;-67
2022/11/21 03:49:16;;;;;;;22.55;13.57;;;2.40;98.40;;;;;;5002480;28;20038;-67
2022/11/21 03:51:43;;;;;;;23.25;14.02;;;2.40;98.40;;;;;;5002330;28;20032;-67
2022/11/21 03:54:09;;;;;;;24.20;14.55;;;2.40;98.50;;;;;;5002776;28;20143;-67
2022/11/21 03:56:35;;;;;;;21.38;13.30;;;2.40;98.50;;;;;;5000869;28;20121;-67
2022/11/21 03:59:01;;;;;;;20.88;13.30;;;2.50;98.50;;;;;;5003379;28;20030;-67
2022/11/21 04:01:27;;;;;;;22.20;13.45;;;2.50;98.50;;;;;;5001485;28;20057;-67
2022/11/21 04:03:53;;;;;;;21.20;12.95;;;2.50;98.60;;;;;;5001615;28;20045;-67
2022/11/21 04:06:21;;;;;;;22.90;13.55;;;2.60;98.60;;;;;;5001098;28;20030;-67
2022/11/21 04:08:47;;;;;;;21.55;13.45;;;2.50;98.60;;;;;;5000866;28;20272;-67
2022/11/21 04:11:13;;;;;;;24.33;13.23;;;2.50;98.80;;;;;;5002526;28;20034;-67
2022/11/21 04:13:38;;;;;;;23.13;14.40;;;2.60;98.60;;;;;;5008932;28;20045;-67
2022/11/21 04:16:04;;;;;;;21.58;13.40;;;2.60;98.60;;;;;;5002610;28;20049;-67
2022/11/21 04:18:33;;;;;;;22.80;13.95;;;2.60;98.60;;;;;;5003001;28;20073;-68
2022/11/21 04:21:00;;;;;;;21.60;14.15;;;2.60;98.60;;;;;;5001421;28;20554;-67
2022/11/21 04:23:27;;;;;;;24.65;14.90;;;2.60;98.50;;;;;;5000356;28;20145;-67
2022/11/21 04:25:53;;;;;;;21.83;13.98;;;2.50;98.50;;;;;;5002024;28;20494;-68
2022/11/21 04:28:20;;;;;;;20.20;13.13;;;2.50;98.50;;;;;;5002661;28;20120;-67
2022/11/21 04:30:46;;;;;;;23.90;14.63;;;2.50;98.50;;;;;;5003178;28;20077;-67
2022/11/21 04:33:13;;;;;;;22.10;13.27;;;2.40;98.40;;;;;;5003998;28;20961;-67
2022/11/21 04:35:38;;;;;;;24.80;14.75;;;2.40;98.40;;;;;;5002213;28;20500;-67
2022/11/21 04:38:04;;;;;;;21.98;13.82;;;2.30;98.40;;;;;;5003196;28;20045;-67
2022/11/21 04:40:30;;;;;;;23.58;14.23;;;2.30;98.50;;;;;;5002037;28;20510;-67
2022/11/21 04:42:55;;;;;;;24.65;15.45;;;2.20;98.50;;;;;;5001587;28;20029;-67
2022/11/21 04:45:21;;;;;;;25.92;14.77;;;2.20;98.60;;;;;;5003420;28;20220;-66
2022/11/21 04:47:49;;;;;;;22.40;13.85;;;2.20;98.60;;;;;;5003106;28;20046;-66
2022/11/21 04:50:15;;;;;;;24.45;13.85;;;2.20;98.60;;;;;;5001585;28;20034;-66
2022/11/21 04:52:42;;;;;;;24.50;14.52;;;2.20;98.60;;;;;;5000836;28;20088;-67
2022/11/21 04:55:08;;;;;;;23.88;14.80;;;2.20;98.60;;;;;;5001289;28;20079;-67
2022/11/21 04:57:34;;;;;;;21.73;14.48;;;2.20;98.60;;;;;;4999490;28;20869;-67
2022/11/21 04:59:59;;;;;;;23.15;13.07;;;2.30;98.70;;;;;;4999044;28;20029;-67
2022/11/21 05:02:25;;;;;;;24.13;14.02;;;2.30;98.70;;;;;;5001488;28;20033;-67
2022/11/21 05:04:50;;;;;;;23.08;13.80;;;2.30;98.70;;;;;;4999584;28;20783;-67
2022/11/21 05:07:16;;;;;;;25.13;14.95;;;2.40;98.70;;;;;;5002907;28;20026;-67
2022/11/21 05:09:42;;;;;;;22.90;14.55;;;2.40;98.70;;;;;;5002640;28;20084;-67
2022/11/21 05:14:54;;;;;;;;;;;2.40;98.70;;;;;;5001557;28;20093;-67
2022/11/21 05:17:20;;;;;;;22.70;14.02;;;2.40;98.60;;;;;;5001023;28;20335;-67
2022/11/21 05:19:45;;;;;;;24.52;14.43;;;2.40;98.60;;;;;;5000820;28;20110;-67
2022/11/21 05:22:11;;;;;;;27.67;16.48;;;2.40;98.60;;;;;;5002409;28;20118;-67
2022/11/21 05:24:37;;;;;;;25.52;15.25;;;2.40;98.50;;;;;;5001934;28;20058;-67
2022/11/21 05:27:03;;;;;;;20.88;14.45;;;2.40;98.50;;;;;;4999502;28;20051;-67
2022/11/21 05:29:29;;;;;;;27.40;15.60;;;2.40;98.50;;;;;;5000028;28;20485;-67
2022/11/21 05:31:55;;;;;;;25.58;15.07;;;2.40;98.50;;;;;;4999413;28;20022;-67
2022/11/21 05:34:22;;;;;;;26.15;14.68;;;2.40;98.40;;;;;;5001730;28;20041;-67
2022/11/21 05:36:48;;;;;;;25.17;15.05;;;2.50;98.40;;;;;;5000599;28;20037;-67
2022/11/21 05:39:14;;;;;;;23.05;15.00;;;2.40;98.40;;;;;;4999986;28;20682;-67
2022/11/21 05:41:40;;;;;;;23.98;14.52;;;2.40;98.50;;;;;;5000818;28;20025;-67
2022/11/21 05:44:06;;;;;;;25.02;14.95;;;2.40;98.50;;;;;;5000828;28;20030;-68
2022/11/21 05:46:32;;;;;;;24.42;14.25;;;2.40;98.50;;;;;;5000809;28;20084;-67
2022/11/21 05:48:58;;;;;;;25.00;14.25;;;2.50;98.60;;;;;;4999485;28;20199;-68
2022/11/21 05:51:23;;;;;;;25.55;14.10;;;2.50;98.60;;;;;;4999301;28;20029;-67
2022/11/21 05:53:49;;;;;;;23.23;14.20;;;2.50;98.60;;;;;;5000010;28;20037;-68
2022/11/21 05:56:17;;;;;;;24.30;15.40;;;2.50;98.60;;;;;;4999340;28;20040;-67
2022/11/21 05:58:44;;;;;;;23.35;14.70;;;2.50;98.60;;;;;;4999725;28;20172;-67
2022/11/21 06:01:14;;;;;;;21.77;14.40;;;2.60;98.60;;;;;;4999840;28;20033;-67
2022/11/21 06:03:41;;;;;;;23.20;14.32;;;2.50;98.60;;;;;;5000789;28;20027;-67
2022/11/21 06:06:12;;;;;;;25.70;15.20;;;2.50;98.60;;;;;;4999884;28;20117;-65
2022/11/21 06:08:38;;;;;;;23.90;15.45;;;2.50;98.60;;;;;;5000462;28;20045;-66
2022/11/21 06:11:04;;;;;;;27.15;16.00;;;2.50;98.60;;;;;;5002254;28;20034;-66
2022/11/21 06:13:32;;;;;;;28.17;15.95;;;2.50;98.60;;;;;;5002981;28;20030;-67
2022/11/21 06:16:05;;;;;;;28.30;18.05;;;2.50;98.80;;;;;;5000401;28;20092;-66
2022/11/21 06:18:33;;;;;;;28.20;17.15;;;2.50;98.70;;;;;;4996795;28;20592;-66
2022/11/21 06:21:06;;;;;;;26.88;16.92;;;2.50;98.70;;;;;;4999971;28;20034;-66
2022/11/21 06:23:33;;;;;;;27.13;16.00;;;2.50;98.90;;;;;;4998725;28;20057;-68
2022/11/21 06:26:01;;;;;;;24.27;15.23;;;2.60;98.70;;;;;;5000260;28;20026;-67
2022/11/21 06:28:30;;;;;;;25.90;14.85;;;2.60;98.70;;;;;;4999082;28;20050;-68
2022/11/21 06:30:56;;;;;;;28.15;16.83;;;2.60;98.70;;;;;;5013406;28;20041;-67
2022/11/21 06:33:22;;;;;;;28.08;16.42;;;2.60;98.70;;;;;;4998924;28;20041;-67
2022/11/21 06:35:47;;;;;;;27.00;16.83;;;2.60;98.80;;;;;;4998430;28;20030;-67
2022/11/21 06:38:17;;;;;;;26.77;16.55;;;2.60;98.80;;;;;;4998657;28;20034;-67
2022/11/21 06:40:43;;;;;;;26.25;15.63;;;2.60;98.80;;;;;;4998469;28;20108;-67
2022/11/21 06:43:08;;;;;;;24.65;16.00;;;2.60;98.90;;;;;;4998244;28;20111;-67
2022/11/21 06:45:34;;;;;;;28.33;17.45;;;2.60;98.90;;;;;;4999707;28;20598;-67
2022/11/21 06:48:03;;;;;;;27.52;17.38;;;2.60;98.90;;;;;;5000986;28;20064;-67
2022/11/21 06:50:32;;;;;;;27.50;15.95;;;2.60;98.90;;;;;;4998935;28;20037;-67
2022/11/21 06:52:58;;;;;;;22.02;14.75;;;2.70;99.00;;;;;;4996639;28;20570;-67
2022/11/21 06:55:26;;;;;;;29.35;15.80;;;2.70;99.00;;;;;;4997464;28;20029;-67
2022/11/21 06:57:52;;;;;;;28.75;16.65;;;2.70;99.00;;;;;;4998630;28;20104;-68
2022/11/21 07:00:19;;;;;;;26.38;16.33;;;2.70;99.00;;;;;;4999069;28;20029;-65
2022/11/21 07:02:45;;;;;;;24.42;15.27;;;2.80;99.00;;;;;;4994971;28;20034;-65
2022/11/21 07:05:11;;;;;;;28.73;16.85;;;2.80;99.00;;;;;;4996517;28;20037;-65
2022/11/21 07:07:37;;;;;;;29.40;17.70;;;2.80;99.10;;;;;;4998092;28;20813;-65
2022/11/21 07:10:03;;;;;;;28.75;17.70;;;2.80;99.10;;;;;;4996412;28;20121;-65
2022/11/21 07:15:13;;;;;;;25.33;15.77;;;2.80;99.10;;;;;;4996313;28;20037;-64
2022/11/21 07:17:38;;;;;;;26.15;16.08;;;2.80;99.10;;;;;;4999697;28;20030;-64
2022/11/21 07:20:05;;;;;;;26.85;16.13;;;2.90;99.20;;;;;;4999469;28;20055;-64
2022/11/21 07:22:30;;;;;;;29.67;17.80;;;3.00;99.20;;;;;;4998910;28;20053;-64
2022/11/21 07:24:56;;;;;;;26.95;16.25;;;3.00;99.10;;;;;;4996297;28;20026;-64
2022/11/21 07:27:21;;;;;;;27.25;16.50;;;3.00;99.10;;;;;;4998960;28;20083;-64
2022/11/21 07:29:47;;;;;;;26.13;16.23;;;3.00;99.00;;;;;;4996685;28;20481;-64
2022/11/21 07:32:14;;;;;;;28.05;15.75;;;3.00;99.00;;;;;;4997805;28;20078;-64
2022/11/21 07:34:39;;;;;;;29.73;17.13;;;3.00;98.90;;;;;;4997773;28;20422;-64
2022/11/21 07:37:05;;;;;;;29.67;18.38;;;3.00;98.90;;;;;;5000561;28;20038;-64
2022/11/21 07:39:30;;;;;;;31.15;18.98;;;2.90;98.90;;;;;;4997639;28;21246;-65
2022/11/21 07:41:56;;;;;;;29.85;18.13;;;2.90;98.90;;;;;;4997429;28;20512;-65
2022/11/21 07:44:22;;;;;;;29.48;17.48;;;2.90;98.90;;;;;;4996745;28;20056;-66
2022/11/21 07:46:47;;;;;;;29.92;18.17;;;2.90;98.90;;;;;;5013677;28;20424;-65
2022/11/21 07:49:13;;;;;;;29.08;18.27;;;2.90;98.90;;;;;;4996527;28;20716;-65
2022/11/21 07:51:38;;;;;;;34.30;18.50;;;2.90;98.90;;;;;;4996259;28;20133;-69
2022/11/21 07:54:04;;;;;;;30.17;18.20;;;2.80;98.90;;;;;;4996913;28;20038;-65
2022/11/21 07:56:30;;;;;;;34.70;19.58;;;2.80;99.00;;;;;;4995388;28;20026;-66
2022/11/21 07:58:55;;;;;;;27.58;17.00;;;2.70;99.00;;;;;;4995047;28;21007;-66
2022/11/21 08:01:21;;;;;;;31.17;19.10;;;2.80;99.20;;;;;;4996424;28;20125;-66
2022/11/21 08:03:47;;;;;;;32.60;19.08;;;2.80;99.10;;;;;;4997867;28;20404;-65
2022/11/21 08:06:12;;;;;;;30.92;20.05;;;2.80;99.10;;;;;;4996094;28;20034;-66
2022/11/21 08:08:38;;;;;;;32.83;18.42;;;2.80;99.10;;;;;;4996396;28;20077;-65
2022/11/21 08:11:05;;;;;;;31.83;19.23;;;2.80;99.10;;;;;;4995380;28;20026;-65
2022/11/21 08:13:31;;;;;;;29.48;17.52;;;2.90;99.20;;;;;;5001479;28;20030;-64
2022/11/21 08:15:57;;;;;;;31.83;20.17;;;3.00;99.20;;;;;;4996570;28;20036;-64
2022/11/21 08:18:22;;;;;;;34.38;20.02;;;3.00;99.40;;;;;;4997326;28;20037;-65
2022/11/21 08:20:48;;;;;;;34.47;21.27;;;3.00;99.20;;;;;;4997727;28;20045;-65
2022/11/21 08:23:14;;;;;;;34.97;22.98;;;3.00;99.20;;;;;;5002363;28;20033;-65
2022/11/21 08:25:43;;;;;;;36.90;20.83;;;3.10;99.20;;;;;;4998358;28;20064;-65
2022/11/21 08:28:10;;;;;;;37.20;21.23;;;3.20;99.20;;;;;;4994457;28;20053;-65
2022/11/21 08:30:37;;;;;;;34.30;18.80;;;3.20;99.10;;;;;;4995691;28;20337;-66
2022/11/21 08:33:05;;;;;;;31.15;19.50;;;3.30;99.20;;;;;;4994593;28;20166;-66
2022/11/21 08:35:31;;;;;;;26.77;17.00;;;3.20;99.10;;;;;;4995884;28;20062;-66
2022/11/21 08:37:58;;;;;;;32.38;19.63;;;3.30;99.10;;;;;;5001536;28;20528;-66
2022/11/21 08:40:25;;;;;;;29.77;18.35;;;3.30;99.10;;;;;;4995142;28;20125;-66
2022/11/21 08:43:05;;;;;;;29.48;18.50;;;3.30;99.00;;;;;;4997297;28;20029;-66
2022/11/21 08:45:32;;;;;;;30.95;17.90;;;3.20;98.80;;;;;;4999586;28;21182;-66
2022/11/21 08:47:58;;;;;;;25.88;17.55;;;3.30;98.90;;;;;;4997232;28;20128;-66
2022/11/21 08:50:25;;;;;;;23.35;14.55;;;3.20;98.90;;;;;;4993993;28;20026;-66
2022/11/21 08:52:51;;;;;;;23.83;14.85;;;3.30;99.00;;;;;;4993609;28;20511;-66
2022/11/21 08:55:17;;;;;;;26.48;16.15;;;3.20;98.60;;;;;;4994193;28;20026;-66
2022/11/21 09:01:04;;;;;;;27.00;16.48;;;3.10;98.80;;;;;;4997921;28;20567;-66
2022/11/21 09:03:30;;;;;;;26.60;15.57;;;3.10;98.80;;;;;;4995451;28;20030;-66
2022/11/21 09:05:56;;;;;;;27.48;16.05;;;3.00;98.70;;;;;;4995579;28;20060;-66
2022/11/21 09:08:22;;;;;;;23.15;14.55;;;3.00;98.80;;;;;;4982720;28;20053;-66
2022/11/21 09:10:47;;;;;;;25.95;15.27;;;3.10;98.80;;;;;;4996569;28;20027;-66
2022/11/21 09:13:13;;;;;;;23.73;14.48;;;3.10;98.80;;;;;;4997266;28;20041;-66
2022/11/21 09:18:23;;;;;;;24.80;14.77;;;3.10;98.80;;;;;;4995697;28;20030;-67
2022/11/21 09:20:49;;;;;;;24.80;15.30;;;3.10;99.00;;;;;;4994006;28;20378;-67
2022/11/21 09:23:15;;;;;;;24.45;13.85;;;3.10;98.70;;;;;;4993403;28;20034;-66
2022/11/21 09:25:41;;;;;;;27.40;15.63;;;3.10;98.70;;;;;;4994734;28;20121;-66
2022/11/21 09:28:09;;;;;;;27.15;16.67;;;3.00;98.60;;;;;;4992828;28;20046;-66
2022/11/21 09:30:35;;;;;;;32.05;18.02;;;3.00;98.70;;;;;;4993593;28;20555;-66
2022/11/21 09:33:02;;;;;;;31.55;18.10;;;3.00;98.70;;;;;;4992157;28;20049;-65
2022/11/21 09:35:28;;;;;;;27.77;16.30;;;3.00;98.70;;;;;;4994763;28;20477;-66
2022/11/21 09:37:53;;;;;;;33.78;19.00;;;3.00;98.70;;;;;;4994730;28;20038;-66
2022/11/21 09:40:19;;;;;;;32.67;17.58;;;3.00;98.70;;;;;;4994056;28;20512;-66
2022/11/21 09:43:15;;;;;;;33.35;18.60;;;3.00;98.70;;;;;;5007227;28;20049;-66
2022/11/21 09:45:49;;;;;;;30.17;16.67;;;3.00;98.70;;;;;;4995068;28;20041;-66
2022/11/21 09:48:26;;;;;;;29.02;17.02;;;3.00;98.80;;;;;;4996089;28;20406;-66
2022/11/21 09:50:57;;;;;;;31.38;17.23;;;3.10;98.80;;;;;;4995625;28;20306;-66
2022/11/21 09:53:55;;;;;;;32.75;18.67;;;3.20;98.80;;;;;;4995260;28;20030;-66
2022/11/21 09:56:22;;;;;;;31.50;17.20;;;3.30;98.70;;;;;;4993300;28;20609;-66
2022/11/21 09:58:50;;;;;;;32.35;17.80;;;3.30;98.70;;;;;;4996821;28;20426;-66
2022/11/21 10:01:16;;;;;;;28.20;15.93;;;3.40;98.70;;;;;;4994621;28;20033;-66
2022/11/21 10:03:48;;;;;;;29.50;17.63;;;3.40;98.60;;;;;;4992911;28;20028;-65
2022/11/21 10:06:28;;;;;;;30.90;16.85;;;3.40;98.50;;;;;;4993854;28;20972;-65
2022/11/21 10:08:56;;;;;;;27.25;16.00;;;3.40;98.50;;;;;;4992448;28;20056;-65
2022/11/21 10:11:22;;;;;;;28.65;16.88;;;3.40;98.50;;;;;;4999742;28;20080;-65
2022/11/21 10:14:18;;;;;;;29.27;15.57;;;3.50;98.50;;;;;;4994855;28;20568;-66
2022/11/21 10:16:54;;;;;;;23.42;14.75;;;3.50;98.40;;;;;;4993675;28;20069;-66
2022/11/21 10:19:38;;;;;;;22.65;13.05;;;3.50;98.40;;;;;;4992918;28;20038;-66
2022/11/21 10:22:22;;;;;;;21.83;12.88;;;3.60;98.30;;;;;;4994078;28;20030;-65
2022/11/21 10:25:06;;;;;;;20.10;12.52;;;3.60;98.30;;;;;;4993919;28;20117;-65
2022/11/21 10:28:09;;;;;;;22.75;13.10;;;3.60;98.20;;;;;;4994120;28;20595;-65
2022/11/21 10:30:36;;;;;;;22.50;12.98;;;3.60;98.20;;;;;;4993396;28;20030;-65
2022/11/21 10:33:04;;;;;;;23.17;14.15;;;3.60;98.00;;;;;;4990508;28;20388;-65
2022/11/21 10:35:38;;;;;;;21.52;13.48;;;3.50;97.60;;;;;;4994658;28;20038;-65
2022/11/21 10:38:17;;;;;;;20.48;13.10;;;3.40;97.90;;;;;;4993208;28;20397;-65
2022/11/21 10:41:07;;;;;;;22.33;12.85;;;3.40;98.00;;;;;;4993103;28;20038;-65
2022/11/21 10:46:25;;;;;;;22.50;13.07;;;3.40;98.00;;;;;;4994964;28;20523;-65
2022/11/21 10:49:00;;;;;;;22.52;13.10;;;3.50;98.00;;;;;;4994580;28;20133;-68
2022/11/21 10:51:34;;;;;;;22.27;14.25;;;3.50;97.80;;;;;;4994836;28;20398;-66
2022/11/21 10:56:58;;;;;;;21.75;14.52;;;3.30;97.60;;;;;;4996945;28;20390;-68
2022/11/21 10:59:26;;;;;;;23.60;14.70;;;3.20;97.70;;;;;;4998004;28;20041;-68
2022/11/21 11:02:17;;;;;;;26.30;14.38;;;3.20;97.80;;;;;;4997501;28;20177;-68
2022/11/21 11:04:42;;;;;;;24.30;15.00;;;3.30;97.90;;;;;;4994742;28;20053;-69
2022/11/21 11:07:27;;;;;;;23.63;13.55;;;3.30;97.90;;;;;;4996949;28;21099;-68
2022/11/21 11:10:20;;;;;;;20.58;12.63;;;3.40;97.80;;;;;;4998281;28;20080;-67
2022/11/21 11:15:34;;;;;;;21.05;12.73;;;3.50;97.70;;;;;;4999215;28;20030;-68
2022/11/21 11:18:02;;;;;;;19.45;12.00;;;3.50;97.70;;;;;;4995187;28;20540;-68
2022/11/21 11:20:43;;;;;;;19.48;12.68;;;3.60;97.60;;;;;;4998067;28;20033;-68
2022/11/21 11:23:18;;;;;;;22.73;12.48;;;3.60;97.50;;;;;;4997531;28;20393;-67
2022/11/21 11:25:50;;;;;;;18.40;11.00;;;3.60;97.50;;;;;;4997955;28;20118;-68
2022/11/21 11:28:18;;;;;;;20.17;11.55;;;3.60;97.50;;;;;;4999871;28;20593;-70
2022/11/21 11:30:45;;;;;;;16.13;10.52;;;3.60;97.50;;;;;;5001249;28;20056;-68
2022/11/21 11:33:37;;;;;;;18.17;11.82;;;3.70;97.50;;;;;;4998268;28;20049;-69
2022/11/21 11:36:08;;;;;;;16.52;9.95;;;3.70;97.50;;;;;;4996325;28;20030;-70
2022/11/21 11:38:34;;;;;;;15.50;9.65;;;3.70;97.50;;;;;;5000350;28;20034;-70
2022/11/21 11:41:11;;;;;;;17.05;10.48;;;3.70;97.40;;;;;;4998729;28;20030;-70
2022/11/21 11:47:30;;;;;;;14.68;9.00;;;3.70;97.30;;;;;;5003259;28;20073;-70
2022/11/21 11:50:12;;;;;;;13.85;9.10;;;3.70;97.30;;;;;;5000601;28;20053;-70
2022/11/21 11:53:07;;;;;;;17.17;9.20;;;3.70;97.30;;;;;;4999571;28;20148;-70
2022/11/21 11:55:45;;;;;;;12.65;8.02;;;3.70;97.30;;;;;;4995282;28;20034;-70
2022/11/21 11:58:22;;;;;;;14.13;8.10;;;3.80;97.30;;;;;;4996025;28;20042;-70
2022/11/21 12:00:59;;;;;;;12.45;7.50;;;3.80;97.30;;;;;;4998579;28;20103;-70
2022/11/21 12:03:51;;;;;;;13.75;7.97;;;3.80;97.20;;;;;;4994453;28;20037;-69
2022/11/21 12:06:58;;;;;;;13.52;8.00;;;3.70;97.20;;;;;;4996976;28;20053;-70
2022/11/21 12:09:36;;;;;;;12.85;8.07;;;3.80;97.30;;;;;;4999494;28;20385;-70
2022/11/21 12:12:22;;;;;;;11.60;6.80;;;3.80;97.40;;;;;;4998684;28;20117;-70
2022/11/21 12:17:49;;;;;;;11.93;7.63;;;3.90;97.20;;;;;;4999258;28;19920;-70
2022/11/21 12:20:31;;;;;;;9.77;6.88;;;3.90;97.10;;;;;;4996717;28;20032;-69
2022/11/21 12:22:57;;;;;;;12.02;8.40;;;3.90;97.10;;;;;;4994543;28;20037;-69
2022/11/21 12:25:35;;;;;;;12.80;7.35;;;4.00;97.10;;;;;;4997717;28;20140;-69
2022/11/21 12:28:09;;;;;;;11.50;7.78;;;4.00;97.00;;;;;;4999406;28;20046;-71
2022/11/21 12:30:56;;;;;;;12.20;6.57;;;4.00;96.90;;;;;;4997606;28;20335;-70
2022/11/21 12:33:22;;;;;;;11.40;7.43;;;4.00;96.90;;;;;;4997120;28;20079;-72
2022/11/21 12:36:30;;;;;;;11.00;7.00;;;3.90;96.90;;;;;;4995865;28;20022;-70
2022/11/21 12:39:18;;;;;;;10.43;6.70;;;3.90;96.90;;;;;;4996116;28;20034;-70
2022/11/21 12:45:11;;;;;;;12.40;7.55;;;3.80;96.90;;;;;;4996688;28;20056;-68
2022/11/21 12:56:56;;;;;;;14.43;8.32;;;3.90;96.90;;;;;;4996179;28;20029;-69
2022/11/21 12:59:25;;;;;;;11.80;7.88;;;3.90;96.80;;;;;;4998550;28;20038;-69
2022/11/21 13:02:12;;;;;;;13.00;8.57;;;3.90;96.70;;;;;;4998850;28;20032;-68
2022/11/21 13:04:41;;;;;;;13.32;9.30;;;3.90;96.70;;;;;;4997640;28;20042;-68
2022/11/21 13:07:07;;;;;;;11.32;8.05;;;3.80;96.70;;;;;;4997052;28;20033;-68
2022/11/21 13:09:39;;;;;;;14.65;9.43;;;3.80;96.80;;;;;;4994008;28;20038;-70
2022/11/21 13:12:21;;;;;;;13.50;9.32;;;3.90;96.70;;;;;;4994562;28;20026;-68
2022/11/21 13:15:14;;;;;;;12.50;8.60;;;3.90;96.70;;;;;;4996646;28;20113;-69
2022/11/21 13:18:11;;;;;;;13.15;7.85;;;3.90;96.70;;;;;;5000316;28;20033;-68
2022/11/21 13:20:44;;;;;;;13.77;8.63;;;3.90;96.70;;;;;;4997069;28;20030;-69
2022/11/21 13:23:32;;;;;;;16.05;8.98;;;3.80;96.70;;;;;;4997138;28;20049;-69
2022/11/21 13:25:58;;;;;;;14.68;9.45;;;3.80;96.70;;;;;;4996695;28;20030;-68
2022/11/21 13:28:30;;;;;;;12.25;8.15;;;3.70;96.60;;;;;;4993750;28;20104;-69
2022/11/21 13:30:58;;;;;;;14.38;8.55;;;3.70;96.70;;;;;;4996901;28;20040;-70